sensor_id;sensor_type;location;lat;lon;timestamp;P1;durP1;ratioP1;P2;durP2;ratioP2
5341;SDS011;2693;48.822;9.062;2024-01-30T00:02:09;10.07;;;6.75;;
5341;SDS011;2693;48.822;9.062;2024-01-30T00:04:34;11.23;;;6.95;;
5341;SDS011;2693;48.822;9.062;2024-01-30T00:06:59;11.73;;;7.05;;
5341;SDS011;2693;48.822;9.062;2024-01-30T00:09:25;10.65;;;6.65;;
5341;SDS011;2693;48.822;9.062;2024-01-30T00:11:50;9.90;;;6.13;;
5341;SDS011;2693;48.822;9.062;2024-01-30T00:14:16;10.70;;;6.63;;
5341;SDS011;2693;48.822;9.062;2024-01-30T00:16:41;8.85;;;6.25;;
5341;SDS011;2693;48.822;9.062;2024-01-30T00:19:06;8.75;;;5.82;;
5341;SDS011;2693;48.822;9.062;2024-01-30T00:21:33;8.35;;;6.00;;
5341;SDS011;2693;48.822;9.062;2024-01-30T00:23:59;10.20;;;6.57;;
5341;SDS011;2693;48.822;9.062;2024-01-30T00:26:24;8.27;;;5.38;;
5341;SDS011;2693;48.822;9.062;2024-01-30T00:28:49;7.55;;;5.68;;
5341;SDS011;2693;48.822;9.062;2024-01-30T00:31:15;8.52;;;5.72;;
5341;SDS011;2693;48.822;9.062;2024-01-30T00:33:40;8.00;;;5.57;;
5341;SDS011;2693;48.822;9.062;2024-01-30T00:36:07;8.77;;;6.25;;
5341;SDS011;2693;48.822;9.062;2024-01-30T00:38:33;9.60;;;6.30;;
5341;SDS011;2693;48.822;9.062;2024-01-30T00:40:58;8.85;;;6.25;;
5341;SDS011;2693;48.822;9.062;2024-01-30T00:43:24;9.32;;;6.22;;
5341;SDS011;2693;48.822;9.062;2024-01-30T00:45:50;10.68;;;7.10;;
5341;SDS011;2693;48.822;9.062;2024-01-30T00:48:17;10.63;;;6.90;;
5341;SDS011;2693;48.822;9.062;2024-01-30T00:50:43;11.23;;;6.95;;
5341;SDS011;2693;48.822;9.062;2024-01-30T00:53:08;10.90;;;7.20;;
5341;SDS011;2693;48.822;9.062;2024-01-30T00:55:33;8.07;;;6.55;;
5341;SDS011;2693;48.822;9.062;2024-01-30T00:57:58;7.82;;;5.38;;
5341;SDS011;2693;48.822;9.062;2024-01-30T01:00:24;7.88;;;5.18;;
5341;SDS011;2693;48.822;9.062;2024-01-30T01:02:54;9.73;;;6.30;;
5341;SDS011;2693;48.822;9.062;2024-01-30T01:05:20;8.60;;;6.43;;
5341;SDS011;2693;48.822;9.062;2024-01-30T01:07:45;9.18;;;5.72;;
5341;SDS011;2693;48.822;9.062;2024-01-30T01:10:12;9.32;;;6.10;;
5341;SDS011;2693;48.822;9.062;2024-01-30T01:12:38;7.95;;;5.63;;
5341;SDS011;2693;48.822;9.062;2024-01-30T01:15:04;8.68;;;5.82;;
5341;SDS011;2693;48.822;9.062;2024-01-30T01:17:30;9.02;;;6.35;;
5341;SDS011;2693;48.822;9.062;2024-01-30T01:19:55;7.13;;;6.05;;
5341;SDS011;2693;48.822;9.062;2024-01-30T01:22:20;7.30;;;6.03;;
5341;SDS011;2693;48.822;9.062;2024-01-30T01:24:46;9.02;;;5.70;;
5341;SDS011;2693;48.822;9.062;2024-01-30T01:27:11;8.25;;;6.15;;
5341;SDS011;2693;48.822;9.062;2024-01-30T01:29:37;10.15;;;6.18;;
5341;SDS011;2693;48.822;9.062;2024-01-30T01:32:02;9.50;;;6.50;;
5341;SDS011;2693;48.822;9.062;2024-01-30T01:34:28;7.18;;;5.47;;
5341;SDS011;2693;48.822;9.062;2024-01-30T01:36:53;11.10;;;8.40;;
5341;SDS011;2693;48.822;9.062;2024-01-30T01:39:20;9.00;;;7.15;;
5341;SDS011;2693;48.822;9.062;2024-01-30T01:41:45;9.93;;;6.78;;
5341;SDS011;2693;48.822;9.062;2024-01-30T01:44:11;8.98;;;6.00;;
5341;SDS011;2693;48.822;9.062;2024-01-30T01:46:36;9.25;;;7.20;;
5341;SDS011;2693;48.822;9.062;2024-01-30T01:49:02;7.63;;;6.32;;
5341;SDS011;2693;48.822;9.062;2024-01-30T01:51:29;8.38;;;6.40;;
5341;SDS011;2693;48.822;9.062;2024-01-30T01:53:55;10.32;;;5.82;;
5341;SDS011;2693;48.822;9.062;2024-01-30T01:56:21;9.35;;;6.25;;
5341;SDS011;2693;48.822;9.062;2024-01-30T01:58:47;8.35;;;5.80;;
5341;SDS011;2693;48.822;9.062;2024-01-30T02:01:14;8.20;;;5.45;;
5341;SDS011;2693;48.822;9.062;2024-01-30T02:03:41;8.63;;;6.18;;
5341;SDS011;2693;48.822;9.062;2024-01-30T02:06:07;9.32;;;6.20;;
5341;SDS011;2693;48.822;9.062;2024-01-30T02:08:32;7.18;;;5.68;;
5341;SDS011;2693;48.822;9.062;2024-01-30T02:10:58;8.75;;;6.40;;
5341;SDS011;2693;48.822;9.062;2024-01-30T02:13:23;8.93;;;6.20;;
5341;SDS011;2693;48.822;9.062;2024-01-30T02:15:49;9.00;;;5.88;;
5341;SDS011;2693;48.822;9.062;2024-01-30T02:18:15;7.47;;;5.75;;
5341;SDS011;2693;48.822;9.062;2024-01-30T02:20:41;7.80;;;5.90;;
5341;SDS011;2693;48.822;9.062;2024-01-30T02:23:06;9.40;;;5.88;;
5341;SDS011;2693;48.822;9.062;2024-01-30T02:25:39;11.02;;;5.68;;
5341;SDS011;2693;48.822;9.062;2024-01-30T02:28:11;9.13;;;5.07;;
5341;SDS011;2693;48.822;9.062;2024-01-30T02:30:37;10.32;;;5.78;;
5341;SDS011;2693;48.822;9.062;2024-01-30T02:33:03;9.20;;;5.15;;
5341;SDS011;2693;48.822;9.062;2024-01-30T02:35:29;7.88;;;5.15;;
5341;SDS011;2693;48.822;9.062;2024-01-30T02:37:54;8.13;;;5.45;;
5341;SDS011;2693;48.822;9.062;2024-01-30T02:40:19;7.55;;;5.60;;
5341;SDS011;2693;48.822;9.062;2024-01-30T02:42:45;7.35;;;5.75;;
5341;SDS011;2693;48.822;9.062;2024-01-30T02:45:10;8.77;;;5.68;;
5341;SDS011;2693;48.822;9.062;2024-01-30T02:47:36;9.63;;;6.22;;
5341;SDS011;2693;48.822;9.062;2024-01-30T02:50:02;6.93;;;5.70;;
5341;SDS011;2693;48.822;9.062;2024-01-30T02:52:27;8.45;;;5.75;;
5341;SDS011;2693;48.822;9.062;2024-01-30T02:54:53;8.25;;;5.43;;
5341;SDS011;2693;48.822;9.062;2024-01-30T02:57:18;9.32;;;6.18;;
5341;SDS011;2693;48.822;9.062;2024-01-30T02:59:44;8.40;;;5.72;;
5341;SDS011;2693;48.822;9.062;2024-01-30T03:02:09;7.63;;;5.05;;
5341;SDS011;2693;48.822;9.062;2024-01-30T03:04:34;8.30;;;5.40;;
5341;SDS011;2693;48.822;9.062;2024-01-30T03:06:59;8.45;;;5.57;;
5341;SDS011;2693;48.822;9.062;2024-01-30T03:09:25;7.45;;;5.32;;
5341;SDS011;2693;48.822;9.062;2024-01-30T03:11:50;7.72;;;5.35;;
5341;SDS011;2693;48.822;9.062;2024-01-30T03:14:15;8.90;;;5.75;;
5341;SDS011;2693;48.822;9.062;2024-01-30T03:16:41;7.05;;;5.90;;
5341;SDS011;2693;48.822;9.062;2024-01-30T03:19:06;7.88;;;5.03;;
5341;SDS011;2693;48.822;9.062;2024-01-30T03:21:35;8.13;;;5.30;;
5341;SDS011;2693;48.822;9.062;2024-01-30T03:24:01;8.95;;;5.20;;
5341;SDS011;2693;48.822;9.062;2024-01-30T03:26:26;7.78;;;5.63;;
5341;SDS011;2693;48.822;9.062;2024-01-30T03:28:51;8.95;;;5.78;;
5341;SDS011;2693;48.822;9.062;2024-01-30T03:31:17;9.60;;;6.30;;
5341;SDS011;2693;48.822;9.062;2024-01-30T03:33:42;8.10;;;5.75;;
5341;SDS011;2693;48.822;9.062;2024-01-30T03:36:08;7.22;;;5.70;;
5341;SDS011;2693;48.822;9.062;2024-01-30T03:38:34;9.02;;;6.10;;
5341;SDS011;2693;48.822;9.062;2024-01-30T03:41:00;9.32;;;6.07;;
5341;SDS011;2693;48.822;9.062;2024-01-30T03:43:25;8.07;;;6.20;;
5341;SDS011;2693;48.822;9.062;2024-01-30T03:45:51;8.98;;;5.93;;
5341;SDS011;2693;48.822;9.062;2024-01-30T03:48:16;8.05;;;5.70;;
5341;SDS011;2693;48.822;9.062;2024-01-30T03:50:42;8.63;;;5.65;;
5341;SDS011;2693;48.822;9.062;2024-01-30T03:53:07;7.30;;;5.32;;
5341;SDS011;2693;48.822;9.062;2024-01-30T03:55:32;7.15;;;5.90;;
5341;SDS011;2693;48.822;9.062;2024-01-30T03:57:58;7.40;;;6.50;;
5341;SDS011;2693;48.822;9.062;2024-01-30T04:00:23;10.52;;;5.88;;
5341;SDS011;2693;48.822;9.062;2024-01-30T04:02:48;8.23;;;5.97;;
5341;SDS011;2693;48.822;9.062;2024-01-30T04:05:16;8.98;;;6.10;;
5341;SDS011;2693;48.822;9.062;2024-01-30T04:07:41;8.35;;;5.68;;
5341;SDS011;2693;48.822;9.062;2024-01-30T04:10:06;9.15;;;5.65;;
5341;SDS011;2693;48.822;9.062;2024-01-30T04:12:32;10.73;;;6.07;;
5341;SDS011;2693;48.822;9.062;2024-01-30T04:14:58;6.20;;;5.22;;
5341;SDS011;2693;48.822;9.062;2024-01-30T04:17:23;7.75;;;5.50;;
5341;SDS011;2693;48.822;9.062;2024-01-30T04:19:48;9.45;;;6.05;;
5341;SDS011;2693;48.822;9.062;2024-01-30T04:22:14;9.13;;;5.80;;
5341;SDS011;2693;48.822;9.062;2024-01-30T04:24:39;8.60;;;5.80;;
5341;SDS011;2693;48.822;9.062;2024-01-30T04:27:04;7.72;;;6.05;;
5341;SDS011;2693;48.822;9.062;2024-01-30T04:29:30;7.88;;;5.47;;
5341;SDS011;2693;48.822;9.062;2024-01-30T04:31:57;7.95;;;5.53;;
5341;SDS011;2693;48.822;9.062;2024-01-30T04:34:22;7.90;;;5.72;;
5341;SDS011;2693;48.822;9.062;2024-01-30T04:36:47;9.25;;;5.85;;
5341;SDS011;2693;48.822;9.062;2024-01-30T04:39:13;7.50;;;5.30;;
5341;SDS011;2693;48.822;9.062;2024-01-30T04:41:38;11.45;;;5.60;;
5341;SDS011;2693;48.822;9.062;2024-01-30T04:44:03;7.80;;;5.05;;
5341;SDS011;2693;48.822;9.062;2024-01-30T04:46:29;8.50;;;5.90;;
5341;SDS011;2693;48.822;9.062;2024-01-30T04:48:54;9.52;;;5.30;;
5341;SDS011;2693;48.822;9.062;2024-01-30T04:51:19;6.88;;;5.20;;
5341;SDS011;2693;48.822;9.062;2024-01-30T04:53:45;9.00;;;5.80;;
5341;SDS011;2693;48.822;9.062;2024-01-30T04:56:10;10.52;;;5.85;;
5341;SDS011;2693;48.822;9.062;2024-01-30T04:58:36;7.90;;;6.00;;
5341;SDS011;2693;48.822;9.062;2024-01-30T05:01:01;10.07;;;6.20;;
5341;SDS011;2693;48.822;9.062;2024-01-30T05:03:27;7.77;;;5.57;;
5341;SDS011;2693;48.822;9.062;2024-01-30T05:05:52;7.25;;;5.80;;
5341;SDS011;2693;48.822;9.062;2024-01-30T05:08:18;9.45;;;5.95;;
5341;SDS011;2693;48.822;9.062;2024-01-30T05:10:43;9.95;;;5.85;;
5341;SDS011;2693;48.822;9.062;2024-01-30T05:13:09;7.88;;;5.18;;
5341;SDS011;2693;48.822;9.062;2024-01-30T05:15:35;9.82;;;6.15;;
5341;SDS011;2693;48.822;9.062;2024-01-30T05:18:00;8.20;;;5.68;;
5341;SDS011;2693;48.822;9.062;2024-01-30T05:20:25;8.02;;;5.95;;
5341;SDS011;2693;48.822;9.062;2024-01-30T05:22:53;7.90;;;5.13;;
5341;SDS011;2693;48.822;9.062;2024-01-30T05:25:18;8.40;;;5.70;;
5341;SDS011;2693;48.822;9.062;2024-01-30T05:27:44;11.13;;;6.60;;
5341;SDS011;2693;48.822;9.062;2024-01-30T05:30:09;8.13;;;5.77;;
5341;SDS011;2693;48.822;9.062;2024-01-30T05:32:35;9.57;;;6.25;;
5341;SDS011;2693;48.822;9.062;2024-01-30T05:35:00;9.40;;;6.03;;
5341;SDS011;2693;48.822;9.062;2024-01-30T05:37:26;6.97;;;5.72;;
5341;SDS011;2693;48.822;9.062;2024-01-30T05:39:51;9.10;;;5.70;;
5341;SDS011;2693;48.822;9.062;2024-01-30T05:42:16;6.55;;;5.40;;
5341;SDS011;2693;48.822;9.062;2024-01-30T05:44:42;7.75;;;5.50;;
5341;SDS011;2693;48.822;9.062;2024-01-30T05:47:07;8.40;;;5.57;;
5341;SDS011;2693;48.822;9.062;2024-01-30T05:49:33;6.90;;;5.18;;
5341;SDS011;2693;48.822;9.062;2024-01-30T05:51:58;7.72;;;5.50;;
5341;SDS011;2693;48.822;9.062;2024-01-30T05:54:23;8.55;;;5.93;;
5341;SDS011;2693;48.822;9.062;2024-01-30T05:56:49;7.43;;;5.28;;
5341;SDS011;2693;48.822;9.062;2024-01-30T05:59:14;7.75;;;5.32;;
5341;SDS011;2693;48.822;9.062;2024-01-30T06:01:46;7.82;;;5.35;;
5341;SDS011;2693;48.822;9.062;2024-01-30T06:04:12;8.38;;;5.95;;
5341;SDS011;2693;48.822;9.062;2024-01-30T06:06:38;7.15;;;5.00;;
5341;SDS011;2693;48.822;9.062;2024-01-30T06:09:03;8.02;;;5.03;;
5341;SDS011;2693;48.822;9.062;2024-01-30T06:11:28;6.65;;;5.10;;
5341;SDS011;2693;48.822;9.062;2024-01-30T06:13:54;6.97;;;5.15;;
5341;SDS011;2693;48.822;9.062;2024-01-30T06:16:19;7.60;;;5.65;;
5341;SDS011;2693;48.822;9.062;2024-01-30T06:18:46;8.77;;;5.40;;
5341;SDS011;2693;48.822;9.062;2024-01-30T06:21:12;7.93;;;5.57;;
5341;SDS011;2693;48.822;9.062;2024-01-30T06:23:37;6.17;;;4.97;;
5341;SDS011;2693;48.822;9.062;2024-01-30T06:26:03;6.85;;;4.82;;
5341;SDS011;2693;48.822;9.062;2024-01-30T06:28:28;8.02;;;5.57;;
5341;SDS011;2693;48.822;9.062;2024-01-30T06:30:54;7.28;;;5.28;;
5341;SDS011;2693;48.822;9.062;2024-01-30T06:33:19;7.20;;;5.80;;
5341;SDS011;2693;48.822;9.062;2024-01-30T06:35:44;9.50;;;6.33;;
5341;SDS011;2693;48.822;9.062;2024-01-30T06:38:10;11.13;;;7.10;;
5341;SDS011;2693;48.822;9.062;2024-01-30T06:40:36;13.47;;;7.70;;
5341;SDS011;2693;48.822;9.062;2024-01-30T06:43:02;12.30;;;7.20;;
5341;SDS011;2693;48.822;9.062;2024-01-30T06:45:29;13.77;;;7.68;;
5341;SDS011;2693;48.822;9.062;2024-01-30T06:47:54;11.32;;;8.25;;
5341;SDS011;2693;48.822;9.062;2024-01-30T06:50:19;12.50;;;7.88;;
5341;SDS011;2693;48.822;9.062;2024-01-30T06:52:45;12.68;;;7.72;;
5341;SDS011;2693;48.822;9.062;2024-01-30T06:55:10;10.68;;;6.90;;
5341;SDS011;2693;48.822;9.062;2024-01-30T06:57:36;10.63;;;6.75;;
5341;SDS011;2693;48.822;9.062;2024-01-30T07:00:02;11.48;;;7.28;;
5341;SDS011;2693;48.822;9.062;2024-01-30T07:02:27;10.55;;;7.07;;
5341;SDS011;2693;48.822;9.062;2024-01-30T07:04:53;11.55;;;7.40;;
5341;SDS011;2693;48.822;9.062;2024-01-30T07:07:18;11.30;;;7.13;;
5341;SDS011;2693;48.822;9.062;2024-01-30T07:09:43;10.07;;;7.15;;
5341;SDS011;2693;48.822;9.062;2024-01-30T07:12:09;12.07;;;8.00;;
5341;SDS011;2693;48.822;9.062;2024-01-30T07:14:34;10.45;;;6.97;;
5341;SDS011;2693;48.822;9.062;2024-01-30T07:17:00;12.40;;;8.18;;
5341;SDS011;2693;48.822;9.062;2024-01-30T07:19:25;11.02;;;7.35;;
5341;SDS011;2693;48.822;9.062;2024-01-30T07:21:51;12.57;;;7.85;;
5341;SDS011;2693;48.822;9.062;2024-01-30T07:24:16;15.63;;;7.70;;
5341;SDS011;2693;48.822;9.062;2024-01-30T07:26:41;9.65;;;7.43;;
5341;SDS011;2693;48.822;9.062;2024-01-30T07:29:07;13.68;;;7.05;;
5341;SDS011;2693;48.822;9.062;2024-01-30T07:31:32;11.90;;;7.70;;
5341;SDS011;2693;48.822;9.062;2024-01-30T07:33:57;12.48;;;7.10;;
5341;SDS011;2693;48.822;9.062;2024-01-30T07:36:23;12.85;;;7.07;;
5341;SDS011;2693;48.822;9.062;2024-01-30T07:38:48;8.32;;;6.53;;
5341;SDS011;2693;48.822;9.062;2024-01-30T07:41:13;9.30;;;7.03;;
5341;SDS011;2693;48.822;9.062;2024-01-30T07:43:39;11.50;;;7.50;;
5341;SDS011;2693;48.822;9.062;2024-01-30T07:46:04;11.05;;;6.55;;
5341;SDS011;2693;48.822;9.062;2024-01-30T07:48:31;9.00;;;6.90;;
5341;SDS011;2693;48.822;9.062;2024-01-30T07:50:58;10.25;;;6.85;;
5341;SDS011;2693;48.822;9.062;2024-01-30T07:53:24;10.82;;;7.07;;
5341;SDS011;2693;48.822;9.062;2024-01-30T07:55:49;145.18;;;39.35;;
5341;SDS011;2693;48.822;9.062;2024-01-30T07:58:15;170.07;;;47.65;;
5341;SDS011;2693;48.822;9.062;2024-01-30T08:00:40;61.40;;;21.27;;
5341;SDS011;2693;48.822;9.062;2024-01-30T08:03:06;32.28;;;12.95;;
5341;SDS011;2693;48.822;9.062;2024-01-30T08:05:31;33.95;;;13.70;;
5341;SDS011;2693;48.822;9.062;2024-01-30T08:07:57;17.70;;;9.00;;
5341;SDS011;2693;48.822;9.062;2024-01-30T08:10:22;18.92;;;8.40;;
5341;SDS011;2693;48.822;9.062;2024-01-30T08:12:47;15.48;;;8.23;;
5341;SDS011;2693;48.822;9.062;2024-01-30T08:15:13;12.02;;;6.32;;
5341;SDS011;2693;48.822;9.062;2024-01-30T08:17:38;11.75;;;6.80;;
5341;SDS011;2693;48.822;9.062;2024-01-30T08:20:04;11.25;;;7.13;;
5341;SDS011;2693;48.822;9.062;2024-01-30T08:22:30;11.85;;;6.25;;
5341;SDS011;2693;48.822;9.062;2024-01-30T08:24:56;22.85;;;8.88;;
5341;SDS011;2693;48.822;9.062;2024-01-30T08:27:21;10.68;;;6.28;;
5341;SDS011;2693;48.822;9.062;2024-01-30T08:29:46;10.70;;;6.45;;
5341;SDS011;2693;48.822;9.062;2024-01-30T08:32:12;16.80;;;7.88;;
5341;SDS011;2693;48.822;9.062;2024-01-30T08:34:37;17.90;;;7.93;;
5341;SDS011;2693;48.822;9.062;2024-01-30T08:37:02;22.23;;;9.35;;
5341;SDS011;2693;48.822;9.062;2024-01-30T08:39:28;19.08;;;8.60;;
5341;SDS011;2693;48.822;9.062;2024-01-30T08:41:53;14.75;;;7.90;;
5341;SDS011;2693;48.822;9.062;2024-01-30T08:44:19;13.00;;;7.18;;
5341;SDS011;2693;48.822;9.062;2024-01-30T08:46:44;15.30;;;7.43;;
5341;SDS011;2693;48.822;9.062;2024-01-30T08:49:10;12.70;;;7.05;;
5341;SDS011;2693;48.822;9.062;2024-01-30T08:51:38;12.13;;;7.35;;
5341;SDS011;2693;48.822;9.062;2024-01-30T08:54:04;12.23;;;7.35;;
5341;SDS011;2693;48.822;9.062;2024-01-30T08:56:29;10.23;;;6.65;;
5341;SDS011;2693;48.822;9.062;2024-01-30T08:58:54;9.93;;;7.63;;
5341;SDS011;2693;48.822;9.062;2024-01-30T09:01:20;9.52;;;6.40;;
5341;SDS011;2693;48.822;9.062;2024-01-30T09:03:45;11.75;;;7.22;;
5341;SDS011;2693;48.822;9.062;2024-01-30T09:06:11;14.88;;;7.22;;
5341;SDS011;2693;48.822;9.062;2024-01-30T09:08:37;10.25;;;7.25;;
5341;SDS011;2693;48.822;9.062;2024-01-30T09:11:09;10.77;;;7.47;;
5341;SDS011;2693;48.822;9.062;2024-01-30T09:13:36;11.05;;;6.75;;
5341;SDS011;2693;48.822;9.062;2024-01-30T09:16:02;12.15;;;7.40;;
5341;SDS011;2693;48.822;9.062;2024-01-30T09:18:28;8.75;;;6.32;;
5341;SDS011;2693;48.822;9.062;2024-01-30T09:20:53;13.85;;;9.25;;
5341;SDS011;2693;48.822;9.062;2024-01-30T09:23:18;12.23;;;7.18;;
5341;SDS011;2693;48.822;9.062;2024-01-30T09:25:44;9.60;;;6.85;;
5341;SDS011;2693;48.822;9.062;2024-01-30T09:28:10;11.82;;;7.60;;
5341;SDS011;2693;48.822;9.062;2024-01-30T09:30:35;10.43;;;6.70;;
5341;SDS011;2693;48.822;9.062;2024-01-30T09:33:01;12.25;;;6.97;;
5341;SDS011;2693;48.822;9.062;2024-01-30T09:35:26;13.13;;;7.75;;
5341;SDS011;2693;48.822;9.062;2024-01-30T09:37:52;12.30;;;8.07;;
5341;SDS011;2693;48.822;9.062;2024-01-30T09:40:18;12.90;;;7.75;;
5341;SDS011;2693;48.822;9.062;2024-01-30T09:42:45;12.52;;;7.00;;
5341;SDS011;2693;48.822;9.062;2024-01-30T09:45:12;12.60;;;7.68;;
5341;SDS011;2693;48.822;9.062;2024-01-30T09:47:42;10.07;;;7.10;;
5341;SDS011;2693;48.822;9.062;2024-01-30T09:50:09;9.35;;;7.00;;
5341;SDS011;2693;48.822;9.062;2024-01-30T09:52:37;11.00;;;6.90;;
5341;SDS011;2693;48.822;9.062;2024-01-30T09:55:03;15.15;;;7.38;;
5341;SDS011;2693;48.822;9.062;2024-01-30T09:57:29;10.25;;;6.90;;
5341;SDS011;2693;48.822;9.062;2024-01-30T09:59:54;11.13;;;7.68;;
5341;SDS011;2693;48.822;9.062;2024-01-30T10:02:20;13.88;;;7.80;;
5341;SDS011;2693;48.822;9.062;2024-01-30T10:04:50;14.38;;;7.60;;
5341;SDS011;2693;48.822;9.062;2024-01-30T10:07:16;10.80;;;7.05;;
5341;SDS011;2693;48.822;9.062;2024-01-30T10:09:42;14.00;;;7.93;;
5341;SDS011;2693;48.822;9.062;2024-01-30T10:12:09;16.90;;;7.93;;
5341;SDS011;2693;48.822;9.062;2024-01-30T10:14:38;12.32;;;7.90;;
5341;SDS011;2693;48.822;9.062;2024-01-30T10:17:04;13.60;;;8.10;;
5341;SDS011;2693;48.822;9.062;2024-01-30T10:19:30;10.27;;;7.13;;
5341;SDS011;2693;48.822;9.062;2024-01-30T10:21:56;13.57;;;7.47;;
5341;SDS011;2693;48.822;9.062;2024-01-30T10:24:24;15.93;;;7.55;;
5341;SDS011;2693;48.822;9.062;2024-01-30T10:26:50;10.82;;;7.05;;
5341;SDS011;2693;48.822;9.062;2024-01-30T10:29:16;10.65;;;6.75;;
5341;SDS011;2693;48.822;9.062;2024-01-30T10:31:42;12.68;;;7.22;;
5341;SDS011;2693;48.822;9.062;2024-01-30T10:34:07;11.18;;;7.60;;
5341;SDS011;2693;48.822;9.062;2024-01-30T10:36:33;13.77;;;7.28;;
5341;SDS011;2693;48.822;9.062;2024-01-30T10:39:00;15.23;;;8.77;;
5341;SDS011;2693;48.822;9.062;2024-01-30T10:41:26;10.52;;;8.15;;
5341;SDS011;2693;48.822;9.062;2024-01-30T10:43:57;12.52;;;8.02;;
5341;SDS011;2693;48.822;9.062;2024-01-30T10:46:29;10.90;;;8.05;;
5341;SDS011;2693;48.822;9.062;2024-01-30T10:48:57;12.98;;;7.80;;
5341;SDS011;2693;48.822;9.062;2024-01-30T10:51:26;13.57;;;8.13;;
5341;SDS011;2693;48.822;9.062;2024-01-30T10:53:52;12.73;;;7.85;;
5341;SDS011;2693;48.822;9.062;2024-01-30T10:56:18;10.30;;;8.38;;
5341;SDS011;2693;48.822;9.062;2024-01-30T10:58:46;11.10;;;8.00;;
5341;SDS011;2693;48.822;9.062;2024-01-30T11:01:11;13.98;;;7.78;;
5341;SDS011;2693;48.822;9.062;2024-01-30T11:03:38;15.40;;;8.90;;
5341;SDS011;2693;48.822;9.062;2024-01-30T11:06:03;14.45;;;8.90;;
5341;SDS011;2693;48.822;9.062;2024-01-30T11:08:31;12.25;;;7.68;;
5341;SDS011;2693;48.822;9.062;2024-01-30T11:10:57;10.50;;;8.05;;
5341;SDS011;2693;48.822;9.062;2024-01-30T11:13:29;15.95;;;7.90;;
5341;SDS011;2693;48.822;9.062;2024-01-30T11:15:54;8.90;;;7.30;;
5341;SDS011;2693;48.822;9.062;2024-01-30T11:18:23;11.65;;;7.28;;
5341;SDS011;2693;48.822;9.062;2024-01-30T11:20:55;10.55;;;6.93;;
5341;SDS011;2693;48.822;9.062;2024-01-30T11:23:22;8.05;;;6.35;;
5341;SDS011;2693;48.822;9.062;2024-01-30T11:25:47;13.35;;;6.95;;
5341;SDS011;2693;48.822;9.062;2024-01-30T11:28:15;10.77;;;7.05;;
5341;SDS011;2693;48.822;9.062;2024-01-30T11:30:41;11.13;;;7.22;;
5341;SDS011;2693;48.822;9.062;2024-01-30T11:33:08;8.70;;;7.00;;
5341;SDS011;2693;48.822;9.062;2024-01-30T11:35:42;9.07;;;7.05;;
5341;SDS011;2693;48.822;9.062;2024-01-30T11:38:09;8.90;;;6.60;;
5341;SDS011;2693;48.822;9.062;2024-01-30T11:40:37;13.02;;;7.18;;
5341;SDS011;2693;48.822;9.062;2024-01-30T11:43:03;9.68;;;6.45;;
5341;SDS011;2693;48.822;9.062;2024-01-30T11:45:30;11.45;;;6.68;;
5341;SDS011;2693;48.822;9.062;2024-01-30T11:47:56;9.15;;;6.20;;
5341;SDS011;2693;48.822;9.062;2024-01-30T11:50:22;10.52;;;5.57;;
5341;SDS011;2693;48.822;9.062;2024-01-30T11:52:47;7.85;;;5.82;;
5341;SDS011;2693;48.822;9.062;2024-01-30T11:55:13;9.80;;;6.30;;
5341;SDS011;2693;48.822;9.062;2024-01-30T11:57:39;10.48;;;6.88;;
5341;SDS011;2693;48.822;9.062;2024-01-30T12:00:05;9.38;;;6.25;;
5341;SDS011;2693;48.822;9.062;2024-01-30T12:02:37;8.15;;;5.57;;
5341;SDS011;2693;48.822;9.062;2024-01-30T12:05:04;7.38;;;5.70;;
5341;SDS011;2693;48.822;9.062;2024-01-30T12:07:29;9.07;;;5.95;;
5341;SDS011;2693;48.822;9.062;2024-01-30T12:09:55;8.60;;;6.32;;
5341;SDS011;2693;48.822;9.062;2024-01-30T12:12:22;7.45;;;6.28;;
5341;SDS011;2693;48.822;9.062;2024-01-30T12:14:49;11.77;;;6.60;;
5341;SDS011;2693;48.822;9.062;2024-01-30T12:17:26;8.60;;;5.90;;
5341;SDS011;2693;48.822;9.062;2024-01-30T12:20:02;10.10;;;6.78;;
5341;SDS011;2693;48.822;9.062;2024-01-30T12:22:32;9.88;;;6.18;;
5341;SDS011;2693;48.822;9.062;2024-01-30T12:25:00;8.15;;;5.97;;
5341;SDS011;2693;48.822;9.062;2024-01-30T12:27:26;7.65;;;5.35;;
5341;SDS011;2693;48.822;9.062;2024-01-30T12:29:57;5.25;;;4.65;;
5341;SDS011;2693;48.822;9.062;2024-01-30T12:32:23;5.78;;;4.40;;
5341;SDS011;2693;48.822;9.062;2024-01-30T12:34:49;8.15;;;4.40;;
5341;SDS011;2693;48.822;9.062;2024-01-30T12:37:14;5.78;;;4.35;;
5341;SDS011;2693;48.822;9.062;2024-01-30T12:39:44;5.57;;;4.07;;
5341;SDS011;2693;48.822;9.062;2024-01-30T12:42:10;8.15;;;4.38;;
5341;SDS011;2693;48.822;9.062;2024-01-30T12:44:35;6.57;;;4.35;;
5341;SDS011;2693;48.822;9.062;2024-01-30T12:47:02;7.95;;;4.50;;
5341;SDS011;2693;48.822;9.062;2024-01-30T12:49:28;7.07;;;4.15;;
5341;SDS011;2693;48.822;9.062;2024-01-30T12:51:54;5.60;;;4.07;;
5341;SDS011;2693;48.822;9.062;2024-01-30T12:54:19;7.47;;;3.40;;
5341;SDS011;2693;48.822;9.062;2024-01-30T12:56:44;5.68;;;3.38;;
5341;SDS011;2693;48.822;9.062;2024-01-30T12:59:10;6.18;;;3.15;;
5341;SDS011;2693;48.822;9.062;2024-01-30T13:01:35;8.43;;;3.63;;
5341;SDS011;2693;48.822;9.062;2024-01-30T13:04:01;6.18;;;3.50;;
5341;SDS011;2693;48.822;9.062;2024-01-30T13:06:26;6.20;;;3.58;;
5341;SDS011;2693;48.822;9.062;2024-01-30T13:08:52;4.65;;;3.22;;
5341;SDS011;2693;48.822;9.062;2024-01-30T13:11:17;4.78;;;3.40;;
5341;SDS011;2693;48.822;9.062;2024-01-30T13:13:43;5.57;;;3.38;;
5341;SDS011;2693;48.822;9.062;2024-01-30T13:16:08;6.03;;;3.63;;
5341;SDS011;2693;48.822;9.062;2024-01-30T13:18:34;3.67;;;3.10;;
5341;SDS011;2693;48.822;9.062;2024-01-30T13:20:59;5.45;;;3.30;;
5341;SDS011;2693;48.822;9.062;2024-01-30T13:23:25;14.13;;;5.97;;
5341;SDS011;2693;48.822;9.062;2024-01-30T13:25:50;10.57;;;4.70;;
5341;SDS011;2693;48.822;9.062;2024-01-30T13:28:15;14.90;;;6.80;;
5341;SDS011;2693;48.822;9.062;2024-01-30T13:30:41;8.85;;;5.05;;
5341;SDS011;2693;48.822;9.062;2024-01-30T13:33:06;9.48;;;5.22;;
5341;SDS011;2693;48.822;9.062;2024-01-30T13:35:31;6.75;;;5.00;;
5341;SDS011;2693;48.822;9.062;2024-01-30T13:37:57;7.65;;;5.03;;
5341;SDS011;2693;48.822;9.062;2024-01-30T13:40:22;6.28;;;4.88;;
5341;SDS011;2693;48.822;9.062;2024-01-30T13:42:47;9.60;;;4.80;;
5341;SDS011;2693;48.822;9.062;2024-01-30T13:45:13;7.72;;;4.90;;
5341;SDS011;2693;48.822;9.062;2024-01-30T13:47:38;6.65;;;4.70;;
5341;SDS011;2693;48.822;9.062;2024-01-30T13:50:04;7.65;;;4.85;;
5341;SDS011;2693;48.822;9.062;2024-01-30T13:52:30;10.60;;;4.63;;
5341;SDS011;2693;48.822;9.062;2024-01-30T13:54:55;6.55;;;3.85;;
5341;SDS011;2693;48.822;9.062;2024-01-30T13:57:21;8.48;;;4.15;;
5341;SDS011;2693;48.822;9.062;2024-01-30T13:59:46;10.98;;;6.55;;
5341;SDS011;2693;48.822;9.062;2024-01-30T14:02:11;9.00;;;4.82;;
5341;SDS011;2693;48.822;9.062;2024-01-30T14:04:37;8.20;;;4.72;;
5341;SDS011;2693;48.822;9.062;2024-01-30T14:07:03;7.22;;;4.18;;
5341;SDS011;2693;48.822;9.062;2024-01-30T14:09:29;8.48;;;4.30;;
5341;SDS011;2693;48.822;9.062;2024-01-30T14:11:54;8.20;;;5.03;;
5341;SDS011;2693;48.822;9.062;2024-01-30T14:14:20;7.32;;;5.60;;
5341;SDS011;2693;48.822;9.062;2024-01-30T14:16:45;10.95;;;6.68;;
5341;SDS011;2693;48.822;9.062;2024-01-30T14:19:10;9.45;;;7.63;;
5341;SDS011;2693;48.822;9.062;2024-01-30T14:21:36;13.65;;;7.82;;
5341;SDS011;2693;48.822;9.062;2024-01-30T14:24:02;11.88;;;8.10;;
5341;SDS011;2693;48.822;9.062;2024-01-30T14:26:28;11.30;;;8.18;;
5341;SDS011;2693;48.822;9.062;2024-01-30T14:28:53;14.85;;;8.38;;
5341;SDS011;2693;48.822;9.062;2024-01-30T14:31:20;13.88;;;9.05;;
5341;SDS011;2693;48.822;9.062;2024-01-30T14:33:46;11.27;;;7.93;;
5341;SDS011;2693;48.822;9.062;2024-01-30T14:36:12;11.98;;;8.00;;
5341;SDS011;2693;48.822;9.062;2024-01-30T14:38:38;9.70;;;6.25;;
5341;SDS011;2693;48.822;9.062;2024-01-30T14:41:04;12.55;;;6.88;;
5341;SDS011;2693;48.822;9.062;2024-01-30T14:43:30;11.38;;;7.72;;
5341;SDS011;2693;48.822;9.062;2024-01-30T14:45:56;13.18;;;8.30;;
5341;SDS011;2693;48.822;9.062;2024-01-30T14:48:21;9.63;;;5.95;;
5341;SDS011;2693;48.822;9.062;2024-01-30T14:50:47;9.02;;;6.57;;
5341;SDS011;2693;48.822;9.062;2024-01-30T14:53:12;8.65;;;5.90;;
5341;SDS011;2693;48.822;9.062;2024-01-30T14:55:38;9.85;;;6.22;;
5341;SDS011;2693;48.822;9.062;2024-01-30T14:58:03;7.43;;;4.95;;
5341;SDS011;2693;48.822;9.062;2024-01-30T15:00:29;8.52;;;5.15;;
5341;SDS011;2693;48.822;9.062;2024-01-30T15:02:54;7.63;;;4.55;;